Latest Weather Observations for Griffith

IDN60801

Issued at 11:32 am EDT Monday 30 March 2015 (issued every 30 minutes, with the page automatically refreshed every 10 minutes)

About weather observations | Map of weather stations | Latest weather observations for NSW | Other Formats
Station Details ID: 075041 Name: GRIFFITH AIRPORT AWS Lat: -34.25 Lon: 146.07 Height: 134.0 m
Data from the previous 72 hours. | See also: Recent months at Griffith
Date/Time
EDT
Temp
°C
App
Temp
°C
Dew
Point
Rel
Hum
%
Delta-T
°C
Wind Press
QNH
hPa
Press
MSL
hPa
Rain
since 9 am
mm
Dir
 
Spd
km/h
Gust
km/h
Spd
kts
Gust
kts
30/11:30am 24.7 20.3 4.5 27 10.1 ESE 17 24 9 13 1024.7 1024.2 0.0
30/11:00am 24.0 19.2 4.9 29 9.6 ESE 19 26 10 14 1025.0 1024.5 0.0
30/10:30am 23.0 19.2 5.9 33 8.7 ESE 15 19 8 10 1025.0 1024.5 0.0
30/10:00am 21.6 18.2 5.9 36 7.9 E 13 17 7 9 1024.8 1024.3 0.0
30/09:30am 19.2 16.3 6.7 44 6.3 E 11 15 6 8 1024.5 1024.0 0.0
30/09:00am 17.0 13.9 7.1 52 4.9 ESE 13 17 7 9 1024.4 1023.9 0.0
30/08:30am 16.5 13.2 6.6 52 4.9 ESE 13 15 7 8 1024.1 1023.6 0.0
30/08:00am 15.6 12.4 6.9 56 4.3 ESE 13 15 7 8 1023.7 1023.2 0.0
30/07:30am 16.1 14.1 7.1 55 4.5 NE 7 19 4 10 1023.8 1023.3 0.0
30/07:00am 17.1 13.7 6.0 48 5.4 SE 13 15 7 8 1023.4 1023.0 0.0
30/06:30am 15.7 14.6 5.3 50 5.0 CALM 0 0 0 0 1023.1 1022.7 0.0
30/05:30am 16.0 15.0 5.6 50 5.0 CALM 0 0 0 0 1022.7 1022.3 0.0
30/05:00am 15.5 14.5 5.4 51 4.8 CALM 0 0 0 0 1022.6 1022.2 0.0
30/04:30am 15.3 14.2 4.9 50 4.9 CALM 0 0 0 0 1022.4 1022.0 0.0
30/04:00am 15.7 14.5 4.7 48 5.2 CALM 0 0 0 0 1022.3 1021.9 0.0
30/03:30am 15.4 14.2 4.8 49 5.0 CALM 0 0 0 0 1022.3 1021.9 0.0
30/03:00am 16.0 14.9 5.3 49 5.1 CALM 0 0 0 0 1022.4 1022.0 0.0
30/02:30am 16.1 14.9 4.5 46 5.5 CALM 0 0 0 0 1022.8 1022.4 0.0
30/02:00am 17.4 16.3 5.0 44 5.9 CALM 0 0 0 0 1022.8 1022.4 0.0
30/01:30am 17.3 15.0 4.9 44 6.0 E 6 7 3 4 1022.8 1022.4 0.0
30/01:00am 17.6 15.2 5.2 44 6.0 E 7 9 4 5 1022.7 1022.3 0.0
30/12:30am 17.3 14.4 4.9 44 6.0 ESE 9 11 5 6 1022.8 1022.4 0.0
30/12:00am 17.8 14.6 5.1 43 6.1 ESE 11 13 6 7 1023.0 1022.6 0.0
 
Date/Time
EDT
Temp
°C
App
Temp
°C
Dew
Point
Rel
Hum
%
Delta-T
°C
Wind Press
QNH
hPa
Press
MSL
hPa
Rain
since 9 am
mm
Dir
 
Spd
km/h
Gust
km/h
Spd
kts
Gust
kts
29/11:30pm 18.6 15.4 5.1 41 6.6 SE 11 13 6 7 1023.2 1022.8 0.0
29/11:00pm 18.1 14.6 5.3 43 6.2 ESE 13 15 7 8 1023.4 1023.0 0.0
29/10:30pm 19.0 15.3 4.7 39 6.9 SE 13 15 7 8 1023.6 1023.1 0.0
29/09:30pm 19.9 17.0 4.8 37 7.4 SE 9 11 5 6 1023.4 1023.0 0.0
29/09:00pm 20.7 17.0 4.7 35 7.8 S 13 17 7 9 1022.9 1022.5 0.0
29/08:30pm 20.0 17.4 4.1 35 7.6 SSE 7 9 4 5 1022.8 1022.4 0.0
29/08:00pm 20.9 18.4 4.9 35 7.9 SSE 7 9 4 5 1022.4 1022.0 0.0
29/07:30pm 21.9 19.6 4.9 33 8.4 SSE 6 7 3 4 1022.1 1021.7 0.0
29/07:00pm 22.9 20.4 4.9 31 9.0 SSW 7 9 4 5 1021.8 1021.4 0.0
29/06:30pm 23.5 21.0 4.5 29 9.5 SW 7 11 4 6 1021.5 1021.1 0.0
29/05:30pm 24.2 21.8 5.1 29 9.7 S 7 15 4 8 1021.2 1020.7 0.0
29/05:00pm 24.6 22.8 5.4 29 9.8 SE 4 11 2 6 1021.3 1020.9 0.0
29/04:30pm 24.1 21.8 5.0 29 9.6 SSE 6 9 3 5 1021.5 1021.1 0.0
29/04:00pm 24.4 21.3 5.7 30 9.5 SW 11 15 6 8 1021.7 1021.3 0.0
29/03:30pm 23.1 19.9 5.1 31 9.0 SSE 11 15 6 8 1021.9 1021.5 0.0
29/03:00pm 23.5 21.0 4.9 30 9.3 SSW 7 17 4 9 1022.2 1021.8 0.0
29/02:30pm 24.1 21.8 5.5 30 9.5 WSW 7 19 4 10 1022.5 1022.1 0.0
29/02:00pm 22.5 19.3 5.0 32 8.7 S 11 19 6 10 1022.9 1022.5 0.0
29/01:30pm 21.9 18.7 4.9 33 8.4 SSW 11 15 6 8 1023.4 1023.0 0.0
29/01:00pm 21.9 18.7 4.9 33 8.4 SW 11 17 6 9 1023.7 1023.2 0.0
29/12:30pm 21.7 18.8 4.7 33 8.4 S 9 15 5 8 1024.1 1023.6 0.0
29/12:00pm 21.2 18.6 4.3 33 8.2 SE 7 11 4 6 1024.1 1023.6 0.0
29/11:30am 20.9 19.3 4.5 34 8.0 ESE 2 7 1 4 1024.2 1023.7 0.0
29/11:00am 20.5 18.1 4.5 35 7.8 ENE 6 9 3 5 1024.3 1023.8 0.0
29/10:30am 19.5 17.1 4.4 37 7.3 ENE 6 7 3 4 1024.5 1024.0 0.0
29/10:00am 18.5 15.2 4.3 39 6.8 ESE 11 15 6 8 1023.9 1023.4 0.0
29/09:30am 18.0 15.3 3.5 38 6.8 ESE 7 9 4 5 1024.0 1023.5 0.0
29/09:00am 16.3 15.0 4.0 44 5.7 CALM 0 0 0 0 1023.6 1023.1 0.0
29/08:30am 15.4 12.7 3.9 46 5.3 E 7 11 4 6 1022.9 1022.5 0.0
29/08:00am 13.7 12.0 3.8 51 4.5 SE 2 9 1 5 1022.6 1022.2 0.0
29/07:30am 12.6 11.2 3.3 53 4.2 CALM 0 0 0 0 1022.2 1021.8 0.0
29/07:00am 12.0 10.4 2.2 51 4.2 CALM 0 0 0 0 1022.2 1021.8 0.0
29/06:30am 11.2 9.4 1.5 51 4.1 CALM 0 0 0 0 1021.9 1021.5 0.0
29/06:00am 12.3 10.7 2.7 52 4.2 CALM 0 0 0 0 1021.6 1021.2 0.0
29/05:30am 13.0 11.4 2.3 48 4.7 CALM 0 0 0 0 1021.7 1021.3 0.0
29/05:00am 13.4 10.5 2.6 48 4.8 N 7 9 4 5 1021.4 1021.0 0.0
29/04:30am 13.6 11.8 3.4 50 4.6 E 2 9 1 5 1020.7 1020.2 0.0
29/04:00am 13.1 11.4 2.1 47 4.8 CALM 0 0 0 0 1021.1 1020.6 0.0
29/03:30am 13.3 10.6 2.5 48 4.8 S 6 7 3 4 1021.0 1020.5 0.0
29/03:00am 13.8 12.2 2.7 47 4.9 CALM 0 0 0 0 1021.5 1021.1 0.0
29/02:30am 13.6 12.2 3.4 50 4.6 CALM 0 0 0 0 1021.6 1021.2 0.0
29/02:00am 13.6 12.1 3.1 49 4.7 CALM 0 0 0 0 1021.8 1021.4 0.0
29/01:30am 13.4 11.7 2.0 46 5.0 CALM 0 0 0 0 1022.0 1021.6 0.0
29/01:00am 13.9 12.3 2.5 46 5.0 CALM 0 0 0 0 1022.2 1021.8 0.0
29/12:30am 14.2 12.5 1.8 43 5.4 CALM 0 0 0 0 1022.2 1021.8 0.0
29/12:00am 14.0 12.2 1.3 42 5.5 CALM 0 0 0 0 1022.3 1021.9 0.0
 
Date/Time
EDT
Temp
°C
App
Temp
°C
Dew
Point
Rel
Hum
%
Delta-T
°C
Wind Press
QNH
hPa
Press
MSL
hPa
Rain
since 9 am
mm
Dir
 
Spd
km/h
Gust
km/h
Spd
kts
Gust
kts
28/11:30pm 15.0 13.2 1.5 40 5.9 CALM 0 0 0 0 1022.2 1021.8 0.0
28/11:00pm 14.7 13.0 1.6 41 5.7 CALM 0 0 0 0 1022.1 1021.7 0.0
28/10:30pm 14.9 13.1 1.4 40 5.9 CALM 0 0 0 0 1022.4 1022.0 0.0
28/10:00pm 15.5 13.7 0.9 37 6.3 CALM 0 0 0 0 1022.1 1021.7 0.0
28/09:30pm 16.4 14.2 1.3 36 6.7 NNW 2 6 1 3 1022.1 1021.7 0.0
28/09:00pm 17.2 15.5 1.6 35 7.0 CALM 0 0 0 0 1022.1 1021.7 0.0
28/08:30pm 17.9 15.0 1.4 33 7.4 S 6 9 3 5 1021.9 1021.5 0.0
28/08:00pm 17.9 14.9 1.0 32 7.5 S 6 7 3 4 1021.6 1021.2 0.0
28/07:30pm 19.8 16.9 1.7 30 8.3 SW 6 7 3 4 1021.5 1021.1 0.0
28/07:00pm 21.3 18.4 2.6 29 8.8 WSW 7 9 4 5 1021.4 1021.0 0.0
28/06:30pm 22.3 18.1 1.9 26 9.6 SW 13 19 7 10 1021.0 1020.5 0.0
28/06:00pm 22.7 19.0 2.2 26 9.7 WSW 11 17 6 9 1021.0 1020.5 0.0
28/05:30pm 23.0 18.8 1.9 25 10.0 WSW 13 19 7 10 1021.2 1020.7 0.0
28/05:00pm 23.6 19.1 2.4 25 10.1 WSW 15 24 8 13 1021.1 1020.6 0.0
28/04:30pm 23.3 18.8 2.2 25 10.1 SW 15 22 8 12 1021.1 1020.6 0.0
28/04:00pm 23.4 19.0 2.8 26 9.9 WSW 15 26 8 14 1021.5 1021.1 0.0
28/03:30pm 22.8 18.9 3.4 28 9.4 WSW 13 28 7 15 1022.0 1021.6 0.0
28/03:00pm 22.5 18.5 3.1 28 9.3 WSW 13 19 7 10 1022.2 1021.8 0.0
28/02:30pm 22.0 18.1 3.6 30 8.9 W 13 20 7 11 1022.6 1022.2 0.0
28/02:00pm 21.5 16.8 3.2 30 8.7 SW 17 22 9 12 1023.2 1022.8 0.0
28/01:30pm 20.6 17.2 3.8 33 8.1 SSW 11 20 6 11 1023.6 1023.1 0.0
28/01:00pm 20.1 17.0 3.8 34 7.8 WNW 9 19 5 10 1024.0 1023.5 0.0
28/12:30pm 19.1 15.6 3.7 36 7.3 SSW 11 26 6 14 1024.4 1023.9 0.0
28/12:00pm 19.0 15.6 4.0 37 7.1 S 11 17 6 9 1024.7 1024.2 0.0
28/11:30am 17.5 13.7 4.1 41 6.3 S 13 20 7 11 1025.1 1024.6 0.0
28/11:00am 16.9 13.6 4.3 43 5.9 S 11 17 6 9 1025.4 1024.9 0.0
28/10:30am 16.0 12.8 5.0 48 5.2 SSE 11 15 6 8 1025.4 1024.9 0.0
28/10:00am 15.1 11.2 5.3 52 4.6 SSE 15 19 8 10 1025.8 1025.3 0.0
28/09:30am 14.1 9.5 5.7 57 4.0 SSE 19 28 10 15 1025.5 1025.0 0.0
28/09:00am 12.6 8.5 4.6 58 3.7 SSE 15 20 8 11 1025.3 1024.8 0.0
28/08:30am 11.8 7.7 4.5 61 3.3 SSE 15 19 8 10 1024.7 1024.2 0.0
28/08:00am 10.9 8.1 5.0 67 2.7 SSE 9 15 5 8 1024.4 1023.9 0.0
28/07:30am 7.9 6.4 2.8 70 2.2 CALM 0 0 0 0 1024.4 1023.9 0.0
28/07:00am 10.1 7.5 3.2 62 3.0 S 6 11 3 6 1024.4 1023.9 0.0
28/06:30am 11.0 7.7 4.5 64 2.9 S 11 15 6 8 1024.3 1023.8 0.0
28/06:00am 11.8 8.1 4.5 61 3.3 S 13 19 7 10 1024.1 1023.6 0.0
28/05:30am 11.7 8.4 4.4 61 3.3 SSE 11 15 6 8 1023.9 1023.4 0.0
28/05:00am 11.1 8.1 3.9 61 3.2 S 9 13 5 7 1023.8 1023.3 0.0
28/04:30am 10.7 7.8 4.4 65 2.8 S 9 11 5 6 1023.6 1023.1 0.0
28/04:00am 8.6 6.3 2.8 67 2.5 W 4 7 2 4 1023.4 1023.0 0.0
28/03:30am 8.8 6.9 3.0 67 2.5 N 2 7 1 4 1023.4 1023.0 0.0
28/03:00am 8.9 6.0 2.7 65 2.6 N 7 9 4 5 1023.7 1023.2 0.0
28/02:30am 9.9 8.3 2.3 59 3.2 CALM 0 0 0 0 1023.6 1023.1 0.0
28/02:00am 11.3 8.5 2.1 53 3.9 WSW 6 7 3 4 1023.7 1023.2 0.0
28/01:30am 14.1 10.5 3.0 47 5.0 S 11 13 6 7 1023.6 1023.1 0.0
28/01:00am 14.6 11.1 3.4 47 5.1 S 11 13 6 7 1023.8 1023.3 0.0
28/12:30am 14.9 11.0 3.4 46 5.3 S 13 17 7 9 1024.0 1023.5 0.0
28/12:00am 14.7 11.2 3.5 47 5.1 S 11 13 6 7 1024.1 1023.6 0.0
 
Date/Time
EDT
Temp
°C
App
Temp
°C
Dew
Point
Rel
Hum
%
Delta-T
°C
Wind Press
QNH
hPa
Press
MSL
hPa
Rain
since 9 am
mm
Dir
 
Spd
km/h
Gust
km/h
Spd
kts
Gust
kts
27/11:30pm 15.0 11.5 3.5 46 5.3 S 11 13 6 7 1024.2 1023.7 0.0
27/11:00pm 15.7 11.8 3.5 44 5.6 S 13 17 7 9 1024.3 1023.8 0.0
27/10:30pm 15.9 12.0 3.4 43 5.8 SSW 13 17 7 9 1024.2 1023.7 0.0
27/10:00pm 16.0 12.1 3.4 43 5.8 SSW 13 17 7 9 1024.0 1023.5 0.0
27/09:30pm 16.5 12.6 3.6 42 6.0 SSW 13 17 7 9 1024.0 1023.5 0.0
27/09:00pm 17.0 12.8 4.0 42 6.1 SSW 15 20 8 11 1023.7 1023.2 0.0
27/08:30pm 17.7 13.6 4.3 41 6.4 SSW 15 20 8 11 1023.3 1022.9 0.0
27/08:00pm 18.4 13.9 4.2 39 6.8 SSW 17 24 9 13 1022.8 1022.4 0.0
27/07:30pm 19.1 14.6 4.1 37 7.2 SSW 17 22 9 12 1022.4 1022.0 0.0
27/07:00pm 20.1 15.1 3.8 34 7.8 SSW 19 28 10 15 1022.2 1021.8 0.0
27/06:30pm 20.8 14.9 4.0 33 8.1 SSW 24 32 13 17 1022.0 1021.6 0.0
27/06:00pm 21.6 15.6 3.3 30 8.8 SW 24 32 13 17 1021.8 1021.4 0.0
27/05:30pm 21.5 15.2 3.7 31 8.6 SW 26 33 14 18 1021.7 1021.3 0.0
27/05:00pm 22.0 15.7 3.6 30 8.9 SW 26 39 14 21 1021.7 1021.3 0.0
27/04:30pm 21.7 15.8 3.9 31 8.7 SSW 24 35 13 19 1021.8 1021.4 0.0
27/04:00pm 22.0 15.8 4.1 31 8.7 SW 26 35 14 19 1022.1 1021.7 0.0
27/03:30pm 21.3 15.4 4.0 32 8.4 SW 24 33 13 18 1022.3 1021.9 0.0
27/03:00pm 20.9 14.9 3.6 32 8.3 SW 24 33 13 18 1022.7 1022.3 0.0
27/02:30pm 20.4 14.1 4.0 34 7.9 WSW 26 41 14 22 1023.1 1022.7 0.0
27/02:00pm 20.3 15.5 4.8 36 7.6 WSW 19 32 10 17 1023.4 1023.0 0.0
27/01:30pm 19.5 14.7 5.6 40 6.9 WSW 20 33 11 18 1024.0 1023.5 0.0
27/01:00pm 19.1 13.9 5.6 41 6.6 WSW 22 30 12 16 1024.4 1023.9 0.0
27/12:30pm 18.6 14.4 5.5 42 6.4 SW 17 24 9 13 1025.1 1024.6 0.0
27/12:00pm 18.0 13.5 5.9 45 5.9 SW 19 28 10 15 1025.5 1025.0 0.0

Other Formats:

Comma delimited format used in spreadsheet applications
http://www.bom.gov.au/fwo/IDN60801/IDN60801.95704.axf

JavaScript Object Notation format (JSON) in row-major order
http://www.bom.gov.au/fwo/IDN60801/IDN60801.95704.json